createdAt,value
2022-08-07T00:00:52.032Z,98345.69
2022-08-07T00:03:19.464Z,98337.25
2022-08-07T00:05:53.053Z,98340.50
2022-08-07T00:08:21.855Z,98336.97
2022-08-07T00:10:57.625Z,98342.91
2022-08-07T00:13:26.726Z,98347.78
2022-08-07T00:15:54.787Z,98339.91
2022-08-07T00:18:25.421Z,98345.63
2022-08-07T00:20:54.051Z,98356.22
2022-08-07T00:23:21.722Z,98350.16
2022-08-07T00:25:59.005Z,98351.56
2022-08-07T00:28:33.208Z,98352.59
2022-08-07T00:31:04.553Z,98339.31
2022-08-07T00:33:33.960Z,98343.94
2022-08-07T00:36:01.275Z,98348.56
2022-08-07T00:38:31.512Z,98342.41
2022-08-07T00:41:00.577Z,98346.81
2022-08-07T00:44:01.714Z,98347.31
2022-08-07T00:46:14.941Z,98348.41
2022-08-07T00:48:42.626Z,98349.25
2022-08-07T00:51:10.668Z,98354.66
2022-08-07T00:53:38.593Z,98353.84
2022-08-07T00:56:13.880Z,98354.06
2022-08-07T00:58:42.634Z,98347.84
2022-08-07T01:01:14.032Z,98357.53
2022-08-07T01:03:55.511Z,98345.06
2022-08-07T01:06:28.317Z,98346.88
2022-08-07T01:08:58.450Z,98347.16
2022-08-07T01:12:09.583Z,98349.88
2022-08-07T01:14:21.489Z,98348.56
2022-08-07T01:16:56.360Z,98349.59
2022-08-07T01:19:24.657Z,98345.84
2022-08-07T01:21:55.307Z,98348.88
2022-08-07T01:24:23.201Z,98345.34
2022-08-07T01:26:51.916Z,98346.72
2022-08-07T01:29:20.017Z,98343.50
2022-08-07T01:31:48.106Z,98341.09
2022-08-07T01:34:16.176Z,98330.94
2022-08-07T01:36:45.348Z,98338.81
2022-08-07T01:39:21.563Z,98335.56
2022-08-07T01:41:55.274Z,98337.78
2022-08-07T01:44:35.470Z,98341.50
2022-08-07T01:48:16.967Z,98348.06
2022-08-07T01:49:54.683Z,98339.31
2022-08-07T01:52:26.693Z,98336.03
2022-08-07T01:54:57.144Z,98336.59
2022-08-07T01:57:30.044Z,98334.41
2022-08-07T02:00:12.776Z,98326.84
2022-08-07T02:03:18.405Z,98321.41
2022-08-07T02:05:48.295Z,98320.81
2022-08-07T02:08:24.646Z,98317.81
2022-08-07T02:10:57.952Z,98320.00
2022-08-07T02:14:02.304Z,98322.50
2022-08-07T02:16:17.279Z,98322.50
2022-08-07T02:18:51.192Z,98320.19
2022-08-07T02:21:20.202Z,98321.78
2022-08-07T02:23:49.355Z,98314.66
2022-08-07T02:26:32.588Z,98317.91
2022-08-07T02:29:03.195Z,98307.03
2022-08-07T02:31:32.700Z,98312.16
2022-08-07T02:34:10.943Z,98307.03
2022-08-07T02:36:41.243Z,98314.06
2022-08-07T02:39:17.271Z,98306.94
2022-08-07T02:41:59.528Z,98307.56
2022-08-07T02:44:34.345Z,98309.16
2022-08-07T02:47:03.729Z,98309.38
2022-08-07T02:49:56.377Z,98306.38
2022-08-07T02:52:32.051Z,98299.91
2022-08-07T02:55:04.761Z,98303.72
2022-08-07T02:57:56.929Z,98293.38
2022-08-07T03:00:28.238Z,98298.00
2022-08-07T03:02:58.460Z,98293.97
2022-08-07T03:05:29.115Z,98289.13
2022-08-07T03:08:07.545Z,98288.09
2022-08-07T03:10:41.138Z,98291.63
2022-08-07T03:13:19.361Z,98285.16
2022-08-07T03:15:56.422Z,98286.19
2022-08-07T03:18:34.634Z,98280.19
2022-08-07T03:21:05.153Z,98278.84
2022-08-07T03:24:18.372Z,98285.63
2022-08-07T03:26:27.914Z,98280.69
2022-08-07T03:28:58.391Z,98284.72
2022-08-07T03:31:43.401Z,98279.28
2022-08-07T03:34:18.445Z,98287.16
2022-08-07T03:36:50.803Z,98284.22
2022-08-07T03:39:46.007Z,98286.34
2022-08-07T03:42:07.951Z,98299.59
2022-08-07T03:44:38.534Z,98293.66
2022-08-07T03:47:13.361Z,98289.34
2022-08-07T03:49:52.531Z,98289.63
2022-08-07T03:52:26.414Z,98281.19
2022-08-07T03:54:57.305Z,98291.56
2022-08-07T03:58:33.613Z,98288.63
2022-08-07T04:00:30.347Z,98287.72
2022-08-07T04:02:58.464Z,98287.50
2022-08-07T04:05:39.414Z,98284.59
2022-08-07T04:08:11.026Z,98301.69
2022-08-07T04:10:39.017Z,98299.78
2022-08-07T04:13:15.105Z,98302.69
2022-08-07T04:15:45.394Z,98290.75
2022-08-07T04:18:58.352Z,98295.88
2022-08-07T04:21:01.695Z,98296.69
2022-08-07T04:24:01.944Z,98301.00
2022-08-07T04:26:21.970Z,98305.53
2022-08-07T04:28:49.435Z,98299.91
2022-08-07T04:31:20.121Z,98306.94
2022-08-07T04:33:54.932Z,98302.94
2022-08-07T04:36:26.203Z,98300.50
2022-08-07T04:38:53.831Z,98306.72
2022-08-07T04:41:21.151Z,98303.72
2022-08-07T04:44:10.664Z,98304.00
2022-08-07T04:46:59.624Z,98302.69
2022-08-07T04:49:39.546Z,98306.44
2022-08-07T04:52:14.399Z,98310.28
2022-08-07T04:54:53.983Z,98313.50
2022-08-07T04:58:12.382Z,98315.38
2022-08-07T05:00:23.991Z,98312.66
2022-08-07T05:03:17.160Z,98323.25
2022-08-07T05:06:19.184Z,98310.47
2022-08-07T05:09:01.458Z,98311.59
2022-08-07T05:11:57.007Z,98319.34
2022-08-07T05:14:53.516Z,98318.09
2022-08-07T05:17:52.232Z,98316.41
2022-08-07T05:20:13.482Z,98314.81
2022-08-07T05:22:43.430Z,98324.03
2022-08-07T05:25:25.957Z,98309.38
2022-08-07T05:28:02.816Z,98324.88
2022-08-07T05:30:44.623Z,98322.44
2022-08-07T05:33:16.156Z,98315.09
2022-08-07T05:35:47.902Z,98307.03
2022-08-07T05:39:01.013Z,98311.13
2022-08-07T05:41:05.444Z,98316.00
2022-08-07T05:43:56.458Z,98306.22
2022-08-07T05:46:31.043Z,98316.72
2022-08-07T05:49:00.328Z,98312.38
2022-08-07T05:51:31.802Z,98318.59
2022-08-07T05:54:12.472Z,98313.91
2022-08-07T05:56:51.441Z,98318.59
2022-08-07T05:59:21.092Z,98313.00
2022-08-07T06:01:50.141Z,98319.13
2022-08-07T06:04:21.248Z,98315.59
2022-08-07T06:07:03.763Z,98308.66
2022-08-07T06:09:45.043Z,98311.59
2022-08-07T06:12:21.155Z,98312.88
2022-08-07T06:15:05.275Z,98309.09
2022-08-07T06:17:37.772Z,98310.19
2022-08-07T06:20:12.351Z,98312.03
2022-08-07T06:23:02.558Z,98311.19
2022-08-07T06:25:54.484Z,98307.16
2022-08-07T06:28:27.660Z,98308.56
2022-08-07T06:30:56.160Z,98303.00
2022-08-07T06:33:24.525Z,98306.50
2022-08-07T06:36:12.020Z,98302.81
2022-08-07T06:38:58.652Z,98306.28
2022-08-07T06:42:00.384Z,98315.16
2022-08-07T06:44:21.440Z,98310.19
2022-08-07T06:46:53.623Z,98309.28
2022-08-07T06:49:52.305Z,98304.47
2022-08-07T06:52:31.839Z,98306.88
2022-08-07T06:55:32.587Z,98307.84
2022-08-07T06:58:04.166Z,98306.22
2022-08-07T07:00:35.955Z,98306.38
2022-08-07T07:03:08.491Z,98305.47
2022-08-07T07:06:03.135Z,98300.66
2022-08-07T07:08:27.643Z,98304.13
2022-08-07T07:10:58.836Z,98309.47
2022-08-07T07:13:43.614Z,98300.31
2022-08-07T07:16:23.733Z,98302.53
2022-08-07T07:18:59.386Z,98294.13
2022-08-07T07:21:40.329Z,98304.53
2022-08-07T07:24:17.545Z,98299.19
2022-08-07T07:26:49.592Z,98300.25
2022-08-07T07:29:56.558Z,98294.53
2022-08-07T07:32:13.957Z,98291.59
2022-08-07T07:34:45.605Z,98293.44
2022-08-07T07:37:44.488Z,98284.28
2022-08-07T07:40:10.246Z,98292.19
2022-08-07T07:42:47.140Z,98281.34
2022-08-07T07:45:24.489Z,98280.50
2022-08-07T07:48:11.131Z,98283.97
2022-08-07T07:50:40.172Z,98283.53
2022-08-07T07:53:20.168Z,98280.06
2022-08-07T07:55:57.789Z,98276.34
2022-08-07T07:58:40.488Z,98278.25
2022-08-07T08:02:03.151Z,98282.69
2022-08-07T08:04:09.697Z,98279.19
2022-08-07T08:06:39.423Z,98275.81
2022-08-07T08:09:08.487Z,98276.19
2022-08-07T08:11:59.987Z,98275.44
2022-08-07T08:14:26.657Z,98272.41
2022-08-07T08:16:56.033Z,98271.03
2022-08-07T08:20:17.329Z,98269.00
2022-08-07T08:22:33.086Z,98260.41
2022-08-07T08:25:18.342Z,98263.75
2022-08-07T08:27:56.701Z,98260.47
2022-08-07T08:30:28.096Z,98265.81
2022-08-07T08:32:59.370Z,98264.72
2022-08-07T08:35:28.908Z,98263.63
2022-08-07T08:38:08.424Z,98262.66
2022-08-07T08:40:43.886Z,98263.19
2022-08-07T08:43:19.879Z,98255.13
2022-08-07T08:45:59.092Z,98252.97
2022-08-07T08:48:36.393Z,98257.53
2022-08-07T08:51:14.486Z,98249.41
2022-08-07T08:53:55.087Z,98245.25
2022-08-07T08:56:26.270Z,98244.75
2022-08-07T08:58:59.928Z,98252.03
2022-08-07T09:01:46.541Z,98253.00
2022-08-07T09:04:25.976Z,98247.34
2022-08-07T09:07:03.444Z,98252.59
2022-08-07T09:09:57.229Z,98249.22
2022-08-07T09:12:40.998Z,98239.19
2022-08-07T09:16:20.045Z,98238.25
2022-08-07T09:18:23.633Z,98230.75
2022-08-07T09:21:03.738Z,98233.03
2022-08-07T09:24:32.504Z,98234.09
2022-08-07T09:26:51.129Z,98240.00
2022-08-07T09:30:05.591Z,98234.97
2022-08-07T09:32:26.495Z,98241.03
2022-08-07T09:36:04.017Z,98242.28
2022-08-07T09:38:00.431Z,98231.09
2022-08-07T09:40:47.137Z,98225.66
2022-08-07T09:44:03.588Z,98222.50
2022-08-07T09:47:50.441Z,98225.41
2022-08-07T09:50:01.778Z,98224.34
2022-08-07T09:52:42.490Z,98219.53
2022-08-07T09:55:28.764Z,98218.72
2022-08-07T09:58:32.454Z,98217.06
2022-08-07T10:01:15.030Z,98212.94
2022-08-07T10:04:17.283Z,98210.53
2022-08-07T10:07:26.302Z,98203.69
2022-08-07T10:10:12.094Z,98204.72
2022-08-07T10:13:11.021Z,98205.59
2022-08-07T10:16:16.029Z,98196.41
2022-08-07T10:19:11.311Z,98192.38
2022-08-07T10:22:14.088Z,98185.91
2022-08-07T10:24:50.904Z,98184.16
2022-08-07T10:27:46.897Z,98185.66
2022-08-07T10:30:18.508Z,98179.03
2022-08-07T10:33:13.069Z,98185.19
2022-08-07T10:36:11.081Z,98175.31
2022-08-07T10:38:49.920Z,98170.41
2022-08-07T10:41:46.882Z,98172.03
2022-08-07T10:44:33.904Z,98164.47
2022-08-07T10:47:18.523Z,98163.53
2022-08-07T10:50:03.237Z,98160.09
2022-08-07T10:52:37.271Z,98153.31
2022-08-07T10:55:20.978Z,98160.00
2022-08-07T10:58:15.714Z,98155.66
2022-08-07T11:00:56.308Z,98146.69
2022-08-07T11:03:37.844Z,98151.44
2022-08-07T11:06:18.510Z,98151.69
2022-08-07T11:08:54.867Z,98146.63
2022-08-07T11:11:27.353Z,98148.72
2022-08-07T11:14:46.028Z,98144.69
2022-08-07T11:16:56.785Z,98133.28
2022-08-07T11:19:35.101Z,98147.97
2022-08-07T11:22:18.945Z,98144.34
2022-08-07T11:25:06.607Z,98144.22
2022-08-07T11:28:02.342Z,98139.34
2022-08-07T11:30:41.399Z,98139.22
2022-08-07T11:33:54.137Z,98133.66
2022-08-07T11:36:25.170Z,98124.97
2022-08-07T11:39:00.530Z,98128.06
2022-08-07T11:42:01.863Z,98116.22
2022-08-07T11:44:36.197Z,98112.41
2022-08-07T11:47:12.499Z,98113.91
2022-08-07T11:50:30.786Z,98107.09
2022-08-07T11:53:02.688Z,98110.56
2022-08-07T11:56:15.517Z,98114.25
2022-08-07T11:58:44.424Z,98103.63
2022-08-07T12:01:58.682Z,98093.31
2022-08-07T12:04:45.779Z,98098.13
2022-08-07T12:07:26.918Z,98098.75
2022-08-07T12:10:02.242Z,98094.69
2022-08-07T12:12:42.504Z,98093.59
2022-08-07T12:15:17.385Z,98091.19
2022-08-07T12:18:12.649Z,98094.13
2022-08-07T12:20:49.351Z,98085.94
2022-08-07T12:23:37.194Z,98078.16
2022-08-07T12:26:29.713Z,98087.53
2022-08-07T12:29:07.378Z,98078.47
2022-08-07T12:31:52.685Z,98075.03
2022-08-07T12:34:29.881Z,98078.47
2022-08-07T12:36:59.560Z,98070.81
2022-08-07T12:39:43.239Z,98062.91
2022-08-07T12:42:15.552Z,98055.78
2022-08-07T12:44:47.626Z,98059.88
2022-08-07T12:47:27.063Z,98060.09
2022-08-07T12:50:38.113Z,98064.66
2022-08-07T12:52:59.525Z,98056.53
2022-08-07T12:55:41.350Z,98054.72
2022-08-07T12:58:28.255Z,98054.53
2022-08-07T13:01:12.257Z,98044.78
2022-08-07T13:04:02.947Z,98038.78
2022-08-07T13:07:00.880Z,98040.88
2022-08-07T13:10:28.474Z,98039.28
2022-08-07T13:12:50.980Z,98036.75
2022-08-07T13:15:31.750Z,98034.59
2022-08-07T13:18:26.867Z,98037.47
2022-08-07T13:21:02.778Z,98033.78
2022-08-07T13:24:01.624Z,98027.19
2022-08-07T13:26:31.291Z,98023.59
2022-08-07T13:29:09.329Z,98017.66
2022-08-07T13:31:55.043Z,98015.94
2022-08-07T13:34:35.984Z,98013.44
2022-08-07T13:37:10.661Z,98021.31
2022-08-07T13:40:34.018Z,98007.00
2022-08-07T13:42:39.846Z,98008.03
2022-08-07T13:46:06.338Z,98003.69
2022-08-07T13:48:06.149Z,98007.00
2022-08-07T13:50:44.981Z,98011.81
2022-08-07T13:53:55.172Z,98004.44
2022-08-07T13:56:20.233Z,97995.69
2022-08-07T13:59:10.349Z,97987.78
2022-08-07T14:01:55.506Z,97986.06
2022-08-07T14:04:35.766Z,97981.13
2022-08-07T14:07:09.486Z,97982.13
2022-08-07T14:10:02.890Z,97983.75
2022-08-07T14:12:30.797Z,97977.63
2022-08-07T14:15:04.474Z,97974.63
2022-08-07T14:18:13.654Z,97979.72
2022-08-07T14:20:40.178Z,97961.94
2022-08-07T14:23:31.683Z,97966.56
2022-08-07T14:26:23.602Z,97967.34
2022-08-07T14:29:04.324Z,97966.34
2022-08-07T14:31:42.725Z,97961.22
2022-08-07T14:34:29.288Z,97964.56
2022-08-07T14:37:02.988Z,97960.50
2022-08-07T14:40:16.671Z,97961.94
2022-08-07T14:42:25.141Z,97958.72
2022-08-07T14:44:59.738Z,97959.00
2022-08-07T14:47:32.391Z,97963.34
2022-08-07T14:50:05.281Z,97960.13
2022-08-07T14:52:34.986Z,97961.44
2022-08-07T14:55:03.805Z,97961.72
2022-08-07T14:57:54.667Z,97961.13
2022-08-07T15:03:17.466Z,97949.06
2022-08-07T15:05:54.112Z,97947.34
2022-08-07T15:08:33.826Z,97949.34
2022-08-07T15:11:05.521Z,97941.63
2022-08-07T15:13:36.868Z,97951.25
2022-08-07T15:16:10.969Z,97949.03
2022-08-07T15:18:43.971Z,97946.63
2022-08-07T15:27:06.207Z,97936.47
2022-08-07T15:30:10.913Z,97937.28
2022-08-07T15:32:40.094Z,97935.16
2022-08-07T15:35:16.941Z,97943.00
2022-08-07T15:38:04.548Z,97927.03
2022-08-07T15:40:39.001Z,97931.03
2022-08-07T15:43:53.196Z,97937.78
2022-08-07T15:46:31.728Z,97931.72
2022-08-07T15:54:42.032Z,97929.00
2022-08-07T15:57:27.933Z,97930.63
2022-08-07T16:00:04.369Z,97928.41
2022-08-07T16:02:42.213Z,97927.31
2022-08-07T16:05:17.376Z,97920.75
2022-08-07T16:08:31.754Z,97920.44
2022-08-07T16:10:38.427Z,97922.66
2022-08-07T16:13:59.211Z,97930.19
2022-08-07T16:16:57.022Z,97925.25
2022-08-07T16:20:00.028Z,97918.03
2022-08-07T16:22:55.104Z,97918.03
2022-08-07T16:25:53.946Z,97916.94
2022-08-07T16:30:07.033Z,97917.25
2022-08-07T16:31:57.577Z,97923.66
2022-08-07T16:34:48.208Z,97922.03
2022-08-07T16:38:04.885Z,97912.78
2022-08-07T16:41:01.873Z,97910.63
2022-08-07T16:44:06.017Z,97911.66
2022-08-07T16:47:51.367Z,97917.88
2022-08-07T16:50:38.752Z,97913.72
2022-08-07T16:54:06.012Z,97916.94
2022-08-07T16:56:53.466Z,97926.09
2022-08-07T16:59:47.127Z,97918.00
2022-08-07T17:02:52.982Z,97923.50
2022-08-07T17:06:30.446Z,97924.50
2022-08-07T17:09:08.657Z,97931.53
2022-08-07T17:12:01.527Z,97917.75
2022-08-07T17:14:32.357Z,97934.22
2022-08-07T17:17:04.695Z,97921.13
2022-08-07T17:20:02.015Z,97922.75
2022-08-07T17:22:36.452Z,97934.91
2022-08-07T17:25:12.852Z,97932.38
2022-08-07T17:27:58.213Z,97935.75
2022-08-07T17:30:32.426Z,97926.97
2022-08-07T17:34:08.677Z,97933.38
2022-08-07T17:36:13.440Z,97941.72
2022-08-07T17:39:00.352Z,97940.94
2022-08-07T17:42:04.557Z,97943.75
2022-08-07T17:44:45.529Z,97950.63
2022-08-07T17:47:42.309Z,97950.81
2022-08-07T17:50:19.327Z,97949.19
2022-08-07T17:52:53.074Z,97965.31
2022-08-07T17:56:00.187Z,97952.22
2022-08-07T17:58:30.440Z,97968.03
2022-08-07T18:01:02.671Z,97967.66
2022-08-07T18:04:08.136Z,97970.78
2022-08-07T18:06:48.113Z,97973.44
2022-08-07T18:09:48.220Z,97978.19
2022-08-07T18:12:51.491Z,97976.38
2022-08-07T18:15:23.268Z,97980.41
2022-08-07T18:18:45.379Z,97989.34
2022-08-07T18:21:08.186Z,97981.69
2022-08-07T18:24:02.729Z,97990.75
2022-08-07T18:27:08.032Z,97991.75
2022-08-07T18:30:06.950Z,97985.69
2022-08-07T18:33:15.502Z,97991.94
2022-08-07T18:35:57.472Z,97992.94
2022-08-07T18:38:55.946Z,97993.91
2022-08-07T18:41:45.900Z,98003.50
2022-08-07T18:45:09.189Z,98006.72
2022-08-07T18:47:44.594Z,98010.53
2022-08-07T18:50:44.189Z,98013.47
2022-08-07T18:53:22.020Z,98013.22
2022-08-07T18:56:13.705Z,98012.69
2022-08-07T18:59:47.631Z,98021.38
2022-08-07T19:02:19.772Z,98024.38
2022-08-07T19:05:14.982Z,98026.25
2022-08-07T19:07:57.077Z,98035.25
2022-08-07T19:10:31.293Z,98041.38
2022-08-07T19:13:11.827Z,98041.25
2022-08-07T19:16:04.559Z,98048.31
2022-08-07T19:18:45.074Z,98056.31
2022-08-07T19:21:48.046Z,98053.00
2022-08-07T19:24:30.835Z,98062.28
2022-08-07T19:28:29.592Z,98066.69
2022-08-07T19:30:57.727Z,98077.56
2022-08-07T19:32:46.470Z,98074.56
2022-08-07T19:35:18.956Z,98073.97
2022-08-07T19:37:57.644Z,98072.03
2022-08-07T19:40:31.654Z,98072.75
2022-08-07T19:43:09.448Z,98077.00
2022-08-07T19:46:05.977Z,98081.94
2022-08-07T19:48:42.768Z,98079.50
2022-08-07T19:51:19.797Z,98080.31
2022-08-07T19:54:33.179Z,98080.00
2022-08-07T19:57:52.207Z,98081.94
2022-08-07T19:59:40.540Z,98083.22
2022-08-07T20:02:19.156Z,98083.22
2022-08-07T20:04:50.150Z,98075.56
2022-08-07T20:07:27.021Z,98078.28
2022-08-07T20:10:36.181Z,98067.41
2022-08-07T20:13:06.117Z,98077.00
2022-08-07T20:15:37.119Z,98086.34
2022-08-07T20:18:14.640Z,98080.91
2022-08-07T20:20:46.057Z,98086.56
2022-08-07T20:23:33.084Z,98081.72
2022-08-07T20:26:10.697Z,98088.44
2022-08-07T20:28:41.587Z,98087.13
2022-08-07T20:31:21.290Z,98084.84
2022-08-07T20:33:56.696Z,98083.31
2022-08-07T20:36:27.221Z,98082.53
2022-08-07T20:39:00.497Z,98093.38
2022-08-07T20:41:37.996Z,98093.88
2022-08-07T20:44:12.449Z,98090.38
2022-08-07T20:46:44.622Z,98086.03
2022-08-07T20:50:00.201Z,98088.75
2022-08-07T20:52:09.350Z,98088.97
2022-08-07T20:54:53.427Z,98085.44
2022-08-07T20:57:26.240Z,98086.44
2022-08-07T21:00:06.281Z,98086.44
2022-08-07T21:02:39.229Z,98084.84
2022-08-07T21:05:16.098Z,98083.53
2022-08-07T21:07:49.625Z,98089.16
2022-08-07T21:10:29.670Z,98083.22
2022-08-07T21:13:03.057Z,98081.81
2022-08-07T21:15:58.740Z,98085.84
2022-08-07T21:18:27.964Z,98078.78
2022-08-07T21:20:59.834Z,98074.56
2022-08-07T21:23:49.449Z,98080.94
2022-08-07T21:26:34.791Z,98069.22
2022-08-07T21:29:15.728Z,98078.22
2022-08-07T21:32:46.988Z,98073.06
2022-08-07T21:34:46.239Z,98079.31
2022-08-07T21:37:23.918Z,98073.88
2022-08-07T21:39:59.470Z,98073.28
2022-08-07T21:42:42.688Z,98070.25
2022-08-07T21:46:07.693Z,98071.75
2022-08-07T21:48:27.864Z,98081.31
2022-08-07T21:51:20.049Z,98087.56
2022-08-07T21:54:04.141Z,98104.66
2022-08-07T21:56:47.786Z,98094.59
2022-08-07T21:59:29.706Z,98093.38
2022-08-07T22:02:10.786Z,98090.34
2022-08-07T22:04:51.119Z,98096.78
2022-08-07T22:07:31.822Z,98093.28
2022-08-07T22:10:18.211Z,98100.53
2022-08-07T22:12:50.834Z,98089.56
2022-08-07T22:16:38.516Z,98092.28
2022-08-07T22:18:14.930Z,98092.28
2022-08-07T22:20:52.342Z,98096.09
2022-08-07T22:23:24.473Z,98093.09
2022-08-07T22:26:01.391Z,98097.09
2022-08-07T22:28:40.369Z,98099.53
2022-08-07T22:31:45.384Z,98099.03
2022-08-07T22:34:12.904Z,98103.03
2022-08-07T22:36:47.599Z,98100.31
2022-08-07T22:39:26.155Z,98096.00
2022-08-07T22:42:18.926Z,98099.72
2022-08-07T22:44:58.678Z,98101.66
2022-08-07T22:47:55.891Z,98103.25
2022-08-07T22:51:02.987Z,98102.44
2022-08-07T22:54:07.301Z,98097.22
2022-08-07T22:56:37.620Z,98096.91
2022-08-07T22:59:33.100Z,98095.09
2022-08-07T23:02:13.938Z,98102.88
2022-08-07T23:06:10.294Z,98098.81
2022-08-07T23:07:57.996Z,98102.03
2022-08-07T23:10:41.343Z,98098.81
2022-08-07T23:14:05.182Z,98098.53
2022-08-07T23:16:54.606Z,98104.75
2022-08-07T23:19:38.995Z,98114.13
2022-08-07T23:22:32.609Z,98107.09
2022-08-07T23:25:16.058Z,98105.97
2022-08-07T23:28:22.142Z,98105.97
2022-08-07T23:31:11.193Z,98105.47
2022-08-07T23:34:22.144Z,98106.25
2022-08-07T23:37:22.884Z,98112.41
2022-08-07T23:40:06.054Z,98119.53
2022-08-07T23:42:53.088Z,98119.03
2022-08-07T23:45:33.006Z,98113.81
2022-08-07T23:48:58.601Z,98113.53
2022-08-07T23:53:00.712Z,98105.75
2022-08-07T23:54:36.084Z,98106.69
2022-08-07T23:57:18.562Z,98105.25
